createdAt,value
2019-05-13T00:00:15.441Z,7.30
2019-05-13T00:02:43.802Z,7.30
2019-05-13T00:05:11.497Z,7.20
2019-05-13T00:07:39.010Z,7.20
2019-05-13T00:10:07.026Z,7.20
2019-05-13T00:12:35.514Z,7.10
2019-05-13T00:15:03.832Z,7.10
2019-05-13T00:17:33.796Z,7.10
2019-05-13T00:20:03.838Z,7.00
2019-05-13T00:22:31.125Z,7.00
2019-05-13T00:24:58.720Z,6.90
2019-05-13T00:27:26.635Z,6.90
2019-05-13T00:29:54.236Z,6.90
2019-05-13T00:32:23.629Z,6.90
2019-05-13T00:34:53.285Z,6.80
2019-05-13T00:37:20.624Z,6.80
2019-05-13T00:39:48.027Z,6.80
2019-05-13T00:42:15.530Z,6.80
2019-05-13T00:44:44.465Z,6.80
2019-05-13T00:47:13.252Z,6.80
2019-05-13T00:49:40.894Z,6.80
2019-05-13T00:52:08.475Z,6.80
2019-05-13T00:54:35.958Z,6.80
2019-05-13T00:57:04.195Z,6.80
2019-05-13T00:59:33.919Z,6.80
2019-05-13T01:02:03.585Z,6.80
2019-05-13T01:04:31.152Z,6.80
2019-05-13T01:06:59.024Z,6.80
2019-05-13T01:09:26.462Z,6.70
2019-05-13T01:11:53.916Z,6.70
2019-05-13T01:14:23.427Z,6.70
2019-05-13T01:16:50.718Z,6.70
2019-05-13T01:19:18.207Z,6.60
2019-05-13T01:21:45.647Z,6.60
2019-05-13T01:24:14.524Z,6.50
2019-05-13T01:26:43.830Z,6.50
2019-05-13T01:29:13.460Z,6.50
2019-05-13T01:31:43.243Z,6.50
2019-05-13T01:34:10.353Z,6.40
2019-05-13T01:36:37.890Z,6.30
2019-05-13T01:39:06.486Z,6.30
2019-05-13T01:41:34.118Z,6.30
2019-05-13T01:44:03.983Z,6.30
2019-05-13T01:46:31.344Z,6.30
2019-05-13T01:48:58.801Z,6.30
2019-05-13T01:51:26.301Z,6.30
2019-05-13T01:53:53.780Z,6.30
2019-05-13T01:56:23.398Z,6.30
2019-05-13T01:58:50.617Z,6.30
2019-05-13T02:01:18.090Z,6.30
2019-05-13T02:03:45.651Z,6.30
2019-05-13T02:06:14.072Z,6.30
2019-05-13T02:08:43.856Z,6.30
2019-05-13T02:11:13.213Z,6.30
2019-05-13T02:13:40.542Z,6.30
2019-05-13T02:16:08.218Z,6.20
2019-05-13T02:18:35.666Z,6.20
2019-05-13T02:21:05.322Z,6.20
2019-05-13T02:23:34.009Z,6.30
2019-05-13T02:26:04.225Z,6.30
2019-05-13T02:28:33.242Z,6.30
2019-05-13T02:31:00.434Z,6.30
2019-05-13T02:33:27.870Z,6.30
2019-05-13T02:35:55.400Z,6.30
2019-05-13T02:38:28.734Z,6.30
2019-05-13T02:40:53.026Z,6.30
2019-05-13T02:43:23.214Z,6.30
2019-05-13T02:45:53.213Z,6.30
2019-05-13T02:48:23.254Z,6.20
2019-05-13T02:50:52.557Z,6.20
2019-05-13T02:53:18.638Z,6.20
2019-05-13T02:55:46.089Z,6.20
2019-05-13T02:58:13.543Z,6.20
2019-05-13T03:00:44.062Z,6.10
2019-05-13T03:03:12.872Z,6.10
2019-05-13T03:05:42.892Z,6.10
2019-05-13T03:08:12.442Z,6.10
2019-05-13T03:10:38.962Z,6.00
2019-05-13T03:13:06.562Z,6.00
2019-05-13T03:16:02.503Z,5.90
2019-05-13T03:18:28.733Z,5.90
2019-05-13T03:20:56.329Z,5.90
2019-05-13T03:23:23.887Z,5.80
2019-05-13T03:25:53.709Z,5.80
2019-05-13T03:28:22.327Z,5.80
2019-05-13T03:30:55.578Z,5.80
2019-05-13T03:33:26.176Z,5.80
2019-05-13T03:35:54.625Z,5.80
2019-05-13T03:38:18.175Z,5.80
2019-05-13T03:40:46.675Z,5.80
2019-05-13T03:43:15.512Z,5.80
2019-05-13T03:45:44.669Z,5.80
2019-05-13T03:48:12.396Z,5.80
2019-05-13T03:50:43.195Z,5.80
2019-05-13T03:53:12.134Z,5.80
2019-05-13T03:55:38.580Z,5.80
2019-05-13T03:58:07.217Z,5.80
2019-05-13T04:00:35.042Z,5.80
2019-05-13T04:03:04.290Z,5.80
2019-05-13T04:05:33.404Z,5.80
2019-05-13T04:08:03.090Z,5.70
2019-05-13T04:10:33.424Z,5.70
2019-05-13T04:13:03.425Z,5.80
2019-05-13T04:15:31.998Z,5.80
2019-05-13T04:18:02.805Z,5.80
2019-05-13T04:20:32.980Z,5.90
2019-05-13T04:23:02.906Z,5.90
2019-05-13T04:25:32.184Z,6.00
2019-05-13T04:28:03.057Z,6.10
2019-05-13T04:30:32.750Z,6.20
2019-05-13T04:33:01.932Z,6.30
2019-05-13T04:35:28.200Z,6.40
2019-05-13T04:37:55.758Z,6.50
2019-05-13T04:40:23.785Z,6.60
2019-05-13T04:42:53.550Z,6.70
2019-05-13T04:45:23.922Z,6.80
2019-05-13T04:47:52.899Z,6.90
2019-05-13T04:50:22.463Z,7.00
2019-05-13T04:52:52.317Z,7.10
2019-05-13T04:55:18.774Z,7.20
2019-05-13T04:57:46.235Z,7.30
2019-05-13T05:00:16.547Z,7.40
2019-05-13T05:03:13.755Z,7.60
2019-05-13T05:05:56.254Z,7.60
2019-05-13T05:09:06.665Z,7.70
2019-05-13T05:12:12.455Z,7.80
2019-05-13T05:15:32.818Z,7.90
2019-05-13T05:18:44.949Z,8.00
2019-05-13T05:21:18.863Z,8.10
2019-05-13T05:24:23.890Z,8.20
2019-05-13T05:27:41.920Z,8.30
2019-05-13T05:30:51.701Z,8.40
2019-05-13T05:33:55.507Z,8.60
2019-05-13T05:37:02.201Z,8.70
2019-05-13T05:39:31.537Z,8.80
2019-05-13T05:42:01.968Z,8.90
2019-05-13T05:44:32.431Z,9.10
2019-05-13T05:47:02.529Z,9.20
2019-05-13T05:49:32.006Z,9.20
2019-05-13T05:52:02.313Z,9.30
2019-05-13T05:54:33.308Z,9.40
2019-05-13T05:57:02.245Z,9.50
2019-05-13T05:59:31.993Z,9.60
2019-05-13T06:02:01.962Z,9.60
2019-05-13T06:04:32.274Z,9.80
2019-05-13T06:07:03.218Z,9.90
2019-05-13T06:09:32.214Z,9.90
2019-05-13T06:12:01.679Z,10.00
2019-05-13T06:14:32.373Z,10.10
2019-05-13T06:16:59.261Z,10.30
2019-05-13T06:19:26.775Z,10.30
2019-05-13T06:21:54.325Z,10.40
2019-05-13T06:24:26.200Z,10.50
2019-05-13T06:26:52.025Z,10.60
2019-05-13T06:29:22.059Z,10.80
2019-05-13T06:31:49.098Z,10.80
2019-05-13T06:34:16.680Z,10.90
2019-05-13T06:36:44.161Z,11.10
2019-05-13T06:39:12.842Z,11.10
2019-05-13T06:41:41.679Z,11.30
2019-05-13T06:44:09.224Z,11.40
2019-05-13T06:46:36.701Z,11.40
2019-05-13T06:49:04.245Z,11.40
2019-05-13T06:51:31.794Z,11.40
2019-05-13T06:54:01.653Z,11.60
2019-05-13T06:56:28.958Z,11.70
2019-05-13T06:58:56.453Z,11.80
2019-05-13T07:01:24.235Z,11.90
2019-05-13T07:03:51.946Z,11.90
2019-05-13T07:06:21.718Z,12.00
2019-05-13T07:08:48.997Z,12.10
2019-05-13T07:11:21.085Z,12.10
2019-05-13T07:13:45.803Z,12.20
2019-05-13T07:16:14.415Z,12.20
2019-05-13T07:18:41.850Z,12.20
2019-05-13T07:21:11.855Z,12.30
2019-05-13T07:23:42.227Z,12.50
2019-05-13T07:26:12.274Z,12.70
2019-05-13T07:28:42.859Z,12.70
2019-05-13T07:31:11.534Z,12.80
2019-05-13T07:33:42.447Z,12.80
2019-05-13T07:36:12.069Z,12.80
2019-05-13T07:38:41.520Z,12.80
2019-05-13T07:41:08.811Z,12.90
2019-05-13T07:43:36.401Z,12.90
2019-05-13T07:46:04.019Z,12.90
2019-05-13T07:48:32.079Z,12.90
2019-05-13T07:51:01.422Z,13.00
2019-05-13T07:53:29.123Z,13.20
2019-05-13T07:55:56.568Z,13.40
2019-05-13T07:58:24.095Z,13.60
2019-05-13T08:00:52.099Z,13.90
2019-05-13T08:03:21.441Z,14.00
2019-05-13T08:05:51.327Z,14.10
2019-05-13T08:08:18.558Z,14.20
2019-05-13T08:10:45.983Z,14.30
2019-05-13T08:13:13.704Z,14.30
2019-05-13T08:15:42.151Z,14.50
2019-05-13T08:18:12.209Z,14.50
2019-05-13T08:20:41.765Z,14.60
2019-05-13T08:23:11.540Z,14.60
2019-05-13T08:25:38.167Z,14.60
2019-05-13T08:28:05.618Z,14.70
2019-05-13T08:30:33.138Z,14.60
2019-05-13T08:33:01.807Z,14.70
2019-05-13T08:35:31.457Z,14.80
2019-05-13T08:38:01.205Z,14.90
2019-05-13T08:40:28.603Z,15.00
2019-05-13T08:42:56.025Z,15.20
2019-05-13T08:45:23.474Z,15.30
2019-05-13T08:47:51.266Z,15.40
2019-05-13T08:50:21.828Z,15.60
2019-05-13T08:52:48.250Z,15.70
2019-05-13T08:55:16.641Z,15.80
2019-05-13T08:57:44.496Z,15.80
2019-05-13T09:00:13.757Z,15.90
2019-05-13T09:02:42.117Z,15.90
2019-05-13T09:05:12.028Z,15.90
2019-05-13T09:07:41.258Z,16.00
2019-05-13T09:10:08.869Z,16.30
2019-05-13T09:12:40.028Z,16.50
2019-05-13T09:15:07.457Z,16.70
2019-05-13T09:17:34.883Z,16.80
2019-05-13T09:20:03.048Z,16.90
2019-05-13T09:22:31.879Z,16.90
2019-05-13T09:25:01.892Z,16.70
2019-05-13T09:27:31.842Z,16.80
2019-05-13T09:30:02.982Z,16.80
2019-05-13T09:32:31.878Z,16.80
2019-05-13T09:35:02.580Z,16.70
2019-05-13T09:37:31.583Z,16.90
2019-05-13T09:39:58.501Z,17.30
2019-05-13T09:42:25.974Z,17.70
2019-05-13T09:44:53.391Z,17.90
2019-05-13T09:47:21.678Z,18.40
2019-05-13T09:49:49.410Z,18.70
2019-05-13T09:52:17.001Z,19.10
2019-05-13T09:54:44.471Z,19.00
2019-05-13T09:57:12.349Z,18.70
2019-05-13T09:59:42.220Z,18.20
2019-05-13T10:02:12.054Z,18.00
2019-05-13T10:04:43.010Z,17.80
2019-05-13T10:07:08.229Z,18.10
2019-05-13T10:09:35.678Z,18.20
2019-05-13T10:12:03.910Z,18.10
2019-05-13T10:14:32.666Z,17.90
2019-05-13T10:17:06.466Z,17.80
2019-05-13T10:19:34.568Z,17.70
2019-05-13T10:22:02.508Z,17.80
2019-05-13T10:24:32.782Z,18.10
2019-05-13T10:27:02.405Z,18.00
2019-05-13T10:29:32.030Z,17.90
2019-05-13T10:32:02.389Z,18.30
2019-05-13T10:34:31.412Z,19.10
2019-05-13T10:36:58.780Z,19.80
2019-05-13T10:39:26.288Z,20.20
2019-05-13T10:41:53.767Z,20.00
2019-05-13T10:44:21.777Z,19.80
2019-05-13T10:46:52.001Z,20.20
2019-05-13T10:49:19.377Z,20.60
2019-05-13T10:51:48.596Z,21.00
2019-05-13T10:54:16.271Z,21.10
2019-05-13T10:56:43.715Z,21.30
2019-05-13T10:59:12.543Z,21.40
2019-05-13T11:01:42.655Z,21.50
2019-05-13T11:04:13.358Z,21.00
2019-05-13T11:06:39.285Z,20.20
2019-05-13T11:09:13.013Z,20.20
2019-05-13T11:11:41.345Z,20.50
2019-05-13T11:14:12.915Z,20.10
2019-05-13T11:16:38.449Z,20.20
2019-05-13T11:19:05.902Z,20.40
2019-05-13T11:21:33.360Z,20.20
2019-05-13T11:24:03.411Z,20.00
2019-05-13T11:26:35.952Z,20.10
2019-05-13T11:29:02.645Z,20.40
2019-05-13T11:31:32.520Z,20.50
2019-05-13T11:34:01.804Z,20.50
2019-05-13T11:36:28.394Z,20.90
2019-05-13T11:38:55.857Z,21.30
2019-05-13T11:41:23.336Z,21.40
2019-05-13T11:44:11.563Z,21.70
2019-05-13T11:46:22.463Z,21.90
2019-05-13T11:48:51.925Z,21.80
2019-05-13T11:51:19.134Z,22.10
2019-05-13T11:53:46.708Z,22.40
2019-05-13T11:56:14.238Z,22.30
2019-05-13T11:58:43.089Z,22.00
2019-05-13T12:01:10.918Z,22.10
2019-05-13T12:03:38.445Z,22.10
2019-05-13T12:06:06.148Z,22.10
2019-05-13T12:08:34.315Z,22.00
2019-05-13T12:11:04.131Z,21.60
2019-05-13T12:13:32.867Z,21.20
2019-05-13T12:16:03.608Z,21.30
2019-05-13T12:18:30.050Z,21.40
2019-05-13T12:20:57.674Z,21.40
2019-05-13T12:23:25.333Z,21.70
2019-05-13T12:25:53.268Z,22.10
2019-05-13T12:28:20.914Z,22.30
2019-05-13T12:30:48.774Z,22.40
2019-05-13T12:33:16.363Z,22.20
2019-05-13T12:35:43.902Z,22.00
2019-05-13T12:38:13.401Z,21.80
2019-05-13T12:40:42.884Z,21.20
2019-05-13T12:43:13.285Z,21.10
2019-05-13T12:45:43.205Z,21.00
2019-05-13T12:48:12.985Z,21.00
2019-05-13T12:50:38.969Z,21.10
2019-05-13T12:53:06.445Z,21.30
2019-05-13T12:55:33.989Z,21.10
2019-05-13T12:58:02.642Z,20.70
2019-05-13T13:00:33.031Z,20.50
2019-05-13T13:03:02.127Z,20.40
2019-05-13T13:05:36.255Z,20.20
2019-05-13T13:08:16.660Z,20.10
2019-05-13T13:10:28.426Z,20.10
2019-05-13T13:12:56.239Z,19.90
2019-05-13T13:15:37.377Z,19.90
2019-05-13T13:17:54.109Z,19.80
2019-05-13T13:20:24.283Z,19.60
2019-05-13T13:22:51.378Z,19.50
2019-05-13T13:25:23.559Z,19.50
2019-05-13T13:28:08.907Z,19.60
2019-05-13T13:30:18.384Z,19.70
2019-05-13T13:32:46.416Z,19.90
2019-05-13T13:35:14.958Z,19.90
2019-05-13T13:37:46.017Z,19.80
2019-05-13T13:40:12.334Z,19.60
2019-05-13T13:42:43.136Z,19.40
2019-05-13T13:45:09.629Z,19.20
2019-05-13T13:47:37.123Z,19.10
2019-05-13T13:50:05.213Z,19.10
2019-05-13T13:52:33.691Z,19.20
2019-05-13T13:55:04.411Z,19.20
2019-05-13T13:57:32.414Z,19.20
2019-05-13T14:00:32.830Z,19.30
2019-05-13T14:02:36.532Z,19.00
2019-05-13T14:05:04.873Z,18.80
2019-05-13T14:07:35.898Z,18.60
2019-05-13T14:09:58.786Z,18.60
2019-05-13T14:12:26.237Z,18.50
2019-05-13T14:14:53.763Z,18.50
2019-05-13T14:17:21.982Z,18.50
2019-05-13T14:19:51.727Z,18.50
2019-05-13T14:22:21.065Z,18.40
2019-05-13T14:24:48.707Z,18.30
2019-05-13T14:27:16.186Z,18.10
2019-05-13T14:29:49.150Z,18.10
2019-05-13T14:32:13.454Z,17.90
2019-05-13T14:34:42.053Z,17.80
2019-05-13T14:37:11.682Z,17.90
2019-05-13T14:39:39.330Z,17.90
2019-05-13T14:42:06.794Z,17.90
2019-05-13T14:44:34.280Z,17.80
2019-05-13T14:47:02.004Z,17.80
2019-05-13T14:49:31.681Z,17.80
2019-05-13T14:52:00.906Z,17.80
2019-05-13T14:54:28.325Z,17.90
2019-05-13T14:56:56.109Z,17.90
2019-05-13T14:59:23.608Z,17.80
2019-05-13T15:01:51.889Z,17.80
2019-05-13T15:04:22.263Z,17.90
2019-05-13T15:06:48.980Z,17.80
2019-05-13T15:09:16.439Z,17.80
2019-05-13T15:11:44.314Z,17.70
2019-05-13T15:14:11.906Z,17.50
2019-05-13T15:16:42.191Z,17.50
2019-05-13T15:19:08.840Z,17.60
2019-05-13T15:21:36.389Z,17.70
2019-05-13T15:24:04.072Z,17.60
2019-05-13T15:26:31.642Z,17.80
2019-05-13T15:29:02.574Z,17.80
2019-05-13T15:31:31.418Z,17.90
2019-05-13T15:33:58.285Z,18.00
2019-05-13T15:36:25.735Z,17.90
2019-05-13T15:38:53.216Z,17.70
2019-05-13T15:41:20.676Z,17.40
2019-05-13T15:43:48.303Z,17.20
2019-05-13T15:46:15.827Z,17.20
2019-05-13T15:48:43.307Z,17.30
2019-05-13T15:51:11.328Z,17.50
2019-05-13T15:53:39.135Z,17.50
2019-05-13T15:56:06.565Z,17.60
2019-05-13T15:58:39.603Z,17.60
2019-05-13T16:01:03.427Z,17.50
2019-05-13T16:03:31.063Z,17.40
2019-05-13T16:05:58.518Z,17.40
2019-05-13T16:08:26.267Z,17.40
2019-05-13T16:10:53.829Z,17.20
2019-05-13T16:13:22.242Z,17.10
2019-05-13T16:15:49.938Z,17.00
2019-05-13T16:18:17.756Z,16.90
2019-05-13T16:20:45.496Z,16.90
2019-05-13T16:23:13.199Z,16.90
2019-05-13T16:25:41.636Z,16.80
2019-05-13T16:28:09.567Z,16.60
2019-05-13T16:30:37.204Z,16.40
2019-05-13T16:33:04.726Z,16.30
2019-05-13T16:35:32.663Z,16.10
2019-05-13T16:38:01.847Z,16.00
2019-05-13T16:40:35.614Z,15.90
2019-05-13T16:43:01.204Z,15.70
2019-05-13T16:45:28.455Z,15.70
2019-05-13T16:47:58.817Z,15.80
2019-05-13T16:50:25.252Z,15.90
2019-05-13T16:52:52.732Z,15.90
2019-05-13T16:55:21.162Z,16.00
2019-05-13T16:57:51.182Z,16.00
2019-05-13T17:00:19.276Z,16.00
2019-05-13T17:02:46.847Z,16.10
2019-05-13T17:05:14.399Z,16.20
2019-05-13T17:07:42.288Z,16.20
2019-05-13T17:10:12.554Z,16.20
2019-05-13T17:12:42.763Z,16.10
2019-05-13T17:15:10.066Z,16.00
2019-05-13T17:17:37.497Z,16.00
2019-05-13T17:20:06.327Z,16.00
2019-05-13T17:22:33.946Z,15.90
2019-05-13T17:25:02.481Z,15.80
2019-05-13T17:27:31.906Z,15.70
2019-05-13T17:30:01.942Z,15.60
2019-05-13T17:32:29.307Z,15.70
2019-05-13T17:34:56.990Z,15.60
2019-05-13T17:37:24.674Z,15.60
2019-05-13T17:39:52.125Z,15.60
2019-05-13T17:42:21.514Z,15.50
2019-05-13T17:44:51.481Z,15.40
2019-05-13T17:47:18.522Z,15.30
2019-05-13T17:49:46.073Z,15.20
2019-05-13T17:52:13.638Z,15.20
2019-05-13T17:54:42.805Z,15.00
2019-05-13T17:57:12.385Z,14.90
2019-05-13T17:59:41.810Z,14.80
2019-05-13T18:02:11.595Z,14.70
2019-05-13T18:04:41.358Z,14.70
2019-05-13T18:07:08.313Z,14.60
2019-05-13T18:09:35.887Z,14.40
2019-05-13T18:12:03.373Z,14.40
2019-05-13T18:14:30.855Z,14.30
2019-05-13T18:16:58.318Z,14.20
2019-05-13T18:19:25.953Z,14.10
2019-05-13T18:21:53.521Z,14.10
2019-05-13T18:24:21.366Z,14.00
2019-05-13T18:26:52.035Z,13.90
2019-05-13T18:29:22.523Z,13.80
2019-05-13T18:31:52.476Z,13.80
2019-05-13T18:34:21.492Z,13.70
2019-05-13T18:36:51.426Z,13.60
2019-05-13T18:39:18.730Z,13.50
2019-05-13T18:41:46.508Z,13.50
2019-05-13T18:44:14.292Z,13.40
2019-05-13T18:46:42.020Z,13.30
2019-05-13T18:49:11.827Z,13.20
2019-05-13T18:51:39.019Z,13.10
2019-05-13T18:54:06.540Z,13.00
2019-05-13T18:56:34.153Z,12.90
2019-05-13T18:59:02.442Z,12.90
2019-05-13T19:01:32.023Z,12.80
2019-05-13T19:04:01.811Z,12.70
2019-05-13T19:06:31.458Z,12.60
2019-05-13T19:08:58.417Z,12.50
2019-05-13T19:11:25.951Z,12.40
2019-05-13T19:13:53.779Z,12.40
2019-05-13T19:16:21.653Z,12.30
2019-05-13T19:18:50.351Z,12.20
2019-05-13T19:21:17.848Z,12.10
2019-05-13T19:23:45.382Z,12.00
2019-05-13T19:26:12.873Z,12.00
2019-05-13T19:28:40.364Z,11.90
2019-05-13T19:31:07.818Z,11.90
2019-05-13T19:33:36.375Z,11.80
2019-05-13T19:36:03.862Z,11.70
2019-05-13T19:38:32.042Z,11.60
2019-05-13T19:41:01.814Z,11.50
2019-05-13T19:43:31.423Z,11.40
2019-05-13T19:46:01.401Z,11.30
2019-05-13T19:48:28.765Z,11.30
2019-05-13T19:50:56.429Z,11.30
2019-05-13T19:53:24.054Z,11.20
2019-05-13T19:55:52.030Z,11.20
2019-05-13T19:58:21.489Z,11.10
2019-05-13T20:00:49.080Z,11.10
2019-05-13T20:03:16.612Z,11.10
2019-05-13T20:05:44.134Z,11.00
2019-05-13T20:08:11.825Z,11.00
2019-05-13T20:10:39.423Z,10.90
2019-05-13T20:13:06.920Z,10.90
2019-05-13T20:15:34.356Z,10.80
2019-05-13T20:18:01.839Z,10.80
2019-05-13T20:20:31.612Z,10.70
2019-05-13T20:23:01.236Z,10.70
2019-05-13T20:25:28.390Z,10.60
2019-05-13T20:27:55.921Z,10.60
2019-05-13T20:30:23.354Z,10.60
2019-05-13T20:32:51.536Z,10.50
2019-05-13T20:35:19.381Z,10.50
2019-05-13T20:37:47.643Z,10.40
2019-05-13T20:40:15.845Z,10.30
2019-05-13T20:42:43.580Z,10.20
2019-05-13T20:45:14.981Z,10.20
2019-05-13T20:47:42.654Z,10.10
2019-05-13T20:50:12.389Z,10.10
2019-05-13T20:52:42.058Z,10.00
2019-05-13T20:55:09.679Z,10.00
2019-05-13T20:57:37.231Z,9.90
2019-05-13T21:00:05.893Z,9.90
2019-05-13T21:02:35.399Z,9.80
2019-05-13T21:05:03.505Z,9.70
2019-05-13T21:07:32.114Z,9.60
2019-05-13T21:10:01.471Z,9.50
2019-05-13T21:12:31.245Z,9.50
2019-05-13T21:15:01.199Z,9.40
2019-05-13T21:17:28.173Z,9.40
2019-05-13T21:20:01.097Z,9.40
2019-05-13T21:22:25.008Z,9.30
2019-05-13T21:24:52.482Z,9.30
2019-05-13T21:27:19.983Z,9.20
2019-05-13T21:29:47.582Z,9.20
2019-05-13T21:32:17.620Z,9.10
2019-05-13T21:34:44.583Z,9.10
2019-05-13T21:37:12.245Z,9.00
2019-05-13T21:39:41.249Z,8.90
2019-05-13T21:42:11.288Z,8.90
2019-05-13T21:44:41.818Z,8.80
2019-05-13T21:47:11.285Z,8.70
2019-05-13T21:49:38.607Z,8.70
2019-05-13T21:52:06.522Z,8.60
2019-05-13T21:54:34.007Z,8.60
2019-05-13T21:57:02.241Z,8.50
2019-05-13T21:59:31.918Z,8.50
2019-05-13T22:02:01.623Z,8.40
2019-05-13T22:04:29.464Z,8.30
2019-05-13T22:06:57.081Z,8.30
2019-05-13T22:09:24.562Z,8.20
2019-05-13T22:11:52.121Z,8.20
2019-05-13T22:14:19.748Z,8.10
2019-05-13T22:16:47.239Z,8.00
2019-05-13T22:19:14.764Z,8.00
2019-05-13T22:21:42.535Z,8.00
2019-05-13T22:24:11.580Z,7.90
2019-05-13T22:26:41.736Z,7.90
2019-05-13T22:29:08.705Z,7.80
2019-05-13T22:31:36.159Z,7.80
2019-05-13T22:34:03.650Z,7.80
2019-05-13T22:36:31.804Z,7.70
2019-05-13T22:39:02.064Z,7.70
2019-05-13T22:41:31.652Z,7.70
2019-05-13T22:43:59.210Z,7.80
2019-05-13T22:46:28.000Z,7.80
2019-05-13T22:48:55.542Z,7.90
2019-05-13T22:51:23.074Z,7.90
2019-05-13T22:53:51.702Z,7.90
2019-05-13T22:56:19.227Z,7.80
2019-05-13T22:58:46.792Z,7.80
2019-05-13T23:01:14.335Z,7.80
2019-05-13T23:03:41.909Z,7.70
2019-05-13T23:06:09.435Z,7.60
2019-05-13T23:08:36.897Z,7.50
2019-05-13T23:11:04.518Z,7.50
2019-05-13T23:13:32.031Z,7.50
2019-05-13T23:15:59.542Z,7.50
2019-05-13T23:18:27.189Z,7.40
2019-05-13T23:20:54.635Z,7.40
2019-05-13T23:23:22.305Z,7.30
2019-05-13T23:25:49.938Z,7.30
2019-05-13T23:28:17.371Z,7.30
2019-05-13T23:30:44.863Z,7.30
2019-05-13T23:33:12.320Z,7.20
2019-05-13T23:35:41.815Z,7.20
2019-05-13T23:38:10.480Z,7.10
2019-05-13T23:40:37.941Z,7.10
2019-05-13T23:43:05.424Z,7.00
2019-05-13T23:45:32.868Z,7.00
2019-05-13T23:48:01.550Z,6.90
2019-05-13T23:50:29.338Z,6.90
2019-05-13T23:52:56.798Z,6.90
2019-05-13T23:55:24.286Z,6.80
2019-05-13T23:57:52.490Z,6.80
